sensor_id;sensor_type;location;lat;lon;timestamp;P1;durP1;ratioP1;P2;durP2;ratioP2
21270;SDS011;10795;50.796;3.860;2022-11-20T00:00:43;62.35;;;30.08;;
21270;SDS011;10795;50.796;3.860;2022-11-20T00:03:09;65.60;;;31.00;;
21270;SDS011;10795;50.796;3.860;2022-11-20T00:05:35;62.75;;;29.88;;
21270;SDS011;10795;50.796;3.860;2022-11-20T00:08:00;63.58;;;30.08;;
21270;SDS011;10795;50.796;3.860;2022-11-20T00:10:26;62.53;;;29.58;;
21270;SDS011;10795;50.796;3.860;2022-11-20T00:12:52;63.05;;;30.10;;
21270;SDS011;10795;50.796;3.860;2022-11-20T00:15:18;61.40;;;28.35;;
21270;SDS011;10795;50.796;3.860;2022-11-20T00:17:43;58.28;;;29.88;;
21270;SDS011;10795;50.796;3.860;2022-11-20T00:20:09;59.25;;;28.30;;
21270;SDS011;10795;50.796;3.860;2022-11-20T00:22:36;62.92;;;30.15;;
21270;SDS011;10795;50.796;3.860;2022-11-20T00:25:01;50.03;;;26.65;;
21270;SDS011;10795;50.796;3.860;2022-11-20T00:27:27;50.30;;;25.83;;
21270;SDS011;10795;50.796;3.860;2022-11-20T00:29:53;50.72;;;25.88;;
21270;SDS011;10795;50.796;3.860;2022-11-20T00:32:19;52.33;;;26.27;;
21270;SDS011;10795;50.796;3.860;2022-11-20T00:34:44;52.95;;;27.10;;
21270;SDS011;10795;50.796;3.860;2022-11-20T00:37:10;54.58;;;26.77;;
21270;SDS011;10795;50.796;3.860;2022-11-20T00:39:36;58.85;;;28.20;;
21270;SDS011;10795;50.796;3.860;2022-11-20T00:42:02;59.38;;;28.50;;
21270;SDS011;10795;50.796;3.860;2022-11-20T00:44:27;61.13;;;28.95;;
21270;SDS011;10795;50.796;3.860;2022-11-20T00:46:53;58.30;;;28.85;;
21270;SDS011;10795;50.796;3.860;2022-11-20T00:49:19;64.35;;;30.02;;
21270;SDS011;10795;50.796;3.860;2022-11-20T00:51:44;57.83;;;28.77;;
21270;SDS011;10795;50.796;3.860;2022-11-20T00:54:10;55.38;;;27.02;;
21270;SDS011;10795;50.796;3.860;2022-11-20T00:56:36;50.38;;;24.85;;
21270;SDS011;10795;50.796;3.860;2022-11-20T00:59:02;59.85;;;28.95;;
21270;SDS011;10795;50.796;3.860;2022-11-20T01:01:28;60.28;;;29.98;;
21270;SDS011;10795;50.796;3.860;2022-11-20T01:03:57;58.20;;;29.50;;
21270;SDS011;10795;50.796;3.860;2022-11-20T01:06:35;67.75;;;29.75;;
21270;SDS011;10795;50.796;3.860;2022-11-20T01:09:03;64.97;;;29.15;;
21270;SDS011;10795;50.796;3.860;2022-11-20T01:11:36;61.28;;;28.73;;
21270;SDS011;10795;50.796;3.860;2022-11-20T01:14:05;64.18;;;29.95;;
21270;SDS011;10795;50.796;3.860;2022-11-20T01:16:35;66.50;;;30.42;;
21270;SDS011;10795;50.796;3.860;2022-11-20T01:19:04;62.03;;;29.00;;
21270;SDS011;10795;50.796;3.860;2022-11-20T01:21:32;64.03;;;29.58;;
21270;SDS011;10795;50.796;3.860;2022-11-20T01:24:00;61.40;;;29.67;;
21270;SDS011;10795;50.796;3.860;2022-11-20T01:26:29;70.35;;;29.08;;
21270;SDS011;10795;50.796;3.860;2022-11-20T01:28:57;61.30;;;30.17;;
21270;SDS011;10795;50.796;3.860;2022-11-20T01:31:28;60.92;;;28.15;;
21270;SDS011;10795;50.796;3.860;2022-11-20T01:33:56;62.67;;;29.08;;
21270;SDS011;10795;50.796;3.860;2022-11-20T01:36:24;60.63;;;28.88;;
21270;SDS011;10795;50.796;3.860;2022-11-20T01:38:53;62.22;;;29.15;;
21270;SDS011;10795;50.796;3.860;2022-11-20T01:41:20;63.17;;;30.58;;
21270;SDS011;10795;50.796;3.860;2022-11-20T01:44:13;62.20;;;28.55;;
21270;SDS011;10795;50.796;3.860;2022-11-20T01:46:59;64.85;;;29.73;;
21270;SDS011;10795;50.796;3.860;2022-11-20T01:49:32;64.78;;;29.60;;
21270;SDS011;10795;50.796;3.860;2022-11-20T01:52:05;64.25;;;29.27;;
21270;SDS011;10795;50.796;3.860;2022-11-20T01:54:39;68.93;;;29.75;;
21270;SDS011;10795;50.796;3.860;2022-11-20T01:57:13;72.60;;;31.15;;
21270;SDS011;10795;50.796;3.860;2022-11-20T01:59:41;71.47;;;31.83;;
21270;SDS011;10795;50.796;3.860;2022-11-20T02:02:17;66.30;;;29.33;;
21270;SDS011;10795;50.796;3.860;2022-11-20T02:04:42;70.25;;;31.55;;
21270;SDS011;10795;50.796;3.860;2022-11-20T02:07:09;66.28;;;30.17;;
21270;SDS011;10795;50.796;3.860;2022-11-20T02:09:36;73.05;;;31.27;;
21270;SDS011;10795;50.796;3.860;2022-11-20T02:12:02;70.25;;;29.42;;
21270;SDS011;10795;50.796;3.860;2022-11-20T02:14:28;68.85;;;31.38;;
21270;SDS011;10795;50.796;3.860;2022-11-20T02:16:54;75.30;;;31.70;;
21270;SDS011;10795;50.796;3.860;2022-11-20T02:19:22;57.97;;;27.35;;
21270;SDS011;10795;50.796;3.860;2022-11-20T02:24:32;66.07;;;31.05;;
21270;SDS011;10795;50.796;3.860;2022-11-20T02:27:03;64.82;;;28.30;;
21270;SDS011;10795;50.796;3.860;2022-11-20T02:32:24;69.50;;;30.55;;
21270;SDS011;10795;50.796;3.860;2022-11-20T02:34:52;64.40;;;28.33;;
21270;SDS011;10795;50.796;3.860;2022-11-20T02:37:18;62.60;;;30.17;;
21270;SDS011;10795;50.796;3.860;2022-11-20T02:39:49;71.85;;;31.05;;
21270;SDS011;10795;50.796;3.860;2022-11-20T02:42:16;55.50;;;25.50;;
21270;SDS011;10795;50.796;3.860;2022-11-20T02:44:42;63.72;;;29.25;;
21270;SDS011;10795;50.796;3.860;2022-11-20T02:47:08;68.68;;;30.42;;
21270;SDS011;10795;50.796;3.860;2022-11-20T02:49:34;63.50;;;29.85;;
21270;SDS011;10795;50.796;3.860;2022-11-20T02:52:00;60.95;;;29.48;;
21270;SDS011;10795;50.796;3.860;2022-11-20T02:54:26;67.65;;;30.42;;
21270;SDS011;10795;50.796;3.860;2022-11-20T02:56:51;67.93;;;29.30;;
21270;SDS011;10795;50.796;3.860;2022-11-20T02:59:17;67.85;;;29.13;;
21270;SDS011;10795;50.796;3.860;2022-11-20T03:01:43;61.72;;;30.52;;
21270;SDS011;10795;50.796;3.860;2022-11-20T03:04:09;61.35;;;27.10;;
21270;SDS011;10795;50.796;3.860;2022-11-20T03:06:34;66.35;;;29.27;;
21270;SDS011;10795;50.796;3.860;2022-11-20T03:09:00;67.93;;;29.48;;
21270;SDS011;10795;50.796;3.860;2022-11-20T03:11:26;67.07;;;28.35;;
21270;SDS011;10795;50.796;3.860;2022-11-20T03:13:52;65.82;;;28.25;;
21270;SDS011;10795;50.796;3.860;2022-11-20T03:16:19;65.28;;;29.50;;
21270;SDS011;10795;50.796;3.860;2022-11-20T03:18:46;53.00;;;23.60;;
21270;SDS011;10795;50.796;3.860;2022-11-20T03:21:12;69.25;;;30.35;;
21270;SDS011;10795;50.796;3.860;2022-11-20T03:23:39;69.82;;;29.58;;
21270;SDS011;10795;50.796;3.860;2022-11-20T03:28:48;77.50;;;30.20;;
21270;SDS011;10795;50.796;3.860;2022-11-20T03:31:16;76.35;;;30.40;;
21270;SDS011;10795;50.796;3.860;2022-11-20T03:33:44;77.75;;;30.08;;
21270;SDS011;10795;50.796;3.860;2022-11-20T03:36:11;67.30;;;28.13;;
21270;SDS011;10795;50.796;3.860;2022-11-20T03:38:38;73.45;;;30.38;;
21270;SDS011;10795;50.796;3.860;2022-11-20T03:41:05;76.57;;;31.35;;
21270;SDS011;10795;50.796;3.860;2022-11-20T03:43:35;84.85;;;31.20;;
21270;SDS011;10795;50.796;3.860;2022-11-20T03:46:01;76.35;;;30.20;;
21270;SDS011;10795;50.796;3.860;2022-11-20T03:48:28;74.70;;;31.85;;
21270;SDS011;10795;50.796;3.860;2022-11-20T03:53:57;83.80;;;30.67;;
21270;SDS011;10795;50.796;3.860;2022-11-20T03:56:34;85.95;;;32.78;;
21270;SDS011;10795;50.796;3.860;2022-11-20T03:59:02;85.43;;;33.75;;
21270;SDS011;10795;50.796;3.860;2022-11-20T04:01:32;87.43;;;32.42;;
21270;SDS011;10795;50.796;3.860;2022-11-20T04:04:00;86.43;;;31.42;;
21270;SDS011;10795;50.796;3.860;2022-11-20T04:06:27;85.57;;;32.35;;
21270;SDS011;10795;50.796;3.860;2022-11-20T04:09:01;86.70;;;31.73;;
21270;SDS011;10795;50.796;3.860;2022-11-20T04:11:27;85.82;;;31.63;;
21270;SDS011;10795;50.796;3.860;2022-11-20T04:13:56;85.72;;;33.55;;
21270;SDS011;10795;50.796;3.860;2022-11-20T04:16:26;88.15;;;33.38;;
21270;SDS011;10795;50.796;3.860;2022-11-20T04:18:56;96.00;;;33.45;;
21270;SDS011;10795;50.796;3.860;2022-11-20T04:21:23;90.90;;;33.75;;
21270;SDS011;10795;50.796;3.860;2022-11-20T04:23:50;87.10;;;32.67;;
21270;SDS011;10795;50.796;3.860;2022-11-20T04:26:17;82.30;;;31.27;;
21270;SDS011;10795;50.796;3.860;2022-11-20T04:28:44;73.30;;;28.52;;
21270;SDS011;10795;50.796;3.860;2022-11-20T04:31:11;80.10;;;30.08;;
21270;SDS011;10795;50.796;3.860;2022-11-20T04:33:39;75.25;;;30.02;;
21270;SDS011;10795;50.796;3.860;2022-11-20T04:36:15;74.57;;;29.48;;
21270;SDS011;10795;50.796;3.860;2022-11-20T04:38:41;71.60;;;28.15;;
21270;SDS011;10795;50.796;3.860;2022-11-20T04:41:09;70.25;;;29.10;;
21270;SDS011;10795;50.796;3.860;2022-11-20T04:43:47;73.50;;;30.23;;
21270;SDS011;10795;50.796;3.860;2022-11-20T04:46:14;74.95;;;29.33;;
21270;SDS011;10795;50.796;3.860;2022-11-20T04:48:41;68.95;;;27.08;;
21270;SDS011;10795;50.796;3.860;2022-11-20T04:51:06;69.78;;;29.15;;
21270;SDS011;10795;50.796;3.860;2022-11-20T04:53:32;68.43;;;28.02;;
21270;SDS011;10795;50.796;3.860;2022-11-20T04:56:16;59.70;;;27.27;;
21270;SDS011;10795;50.796;3.860;2022-11-20T04:58:42;67.28;;;27.27;;
21270;SDS011;10795;50.796;3.860;2022-11-20T05:01:12;69.35;;;27.85;;
21270;SDS011;10795;50.796;3.860;2022-11-20T05:03:43;67.60;;;28.63;;
21270;SDS011;10795;50.796;3.860;2022-11-20T05:06:10;67.63;;;29.02;;
21270;SDS011;10795;50.796;3.860;2022-11-20T05:08:38;67.50;;;28.92;;
21270;SDS011;10795;50.796;3.860;2022-11-20T05:11:05;63.70;;;26.23;;
21270;SDS011;10795;50.796;3.860;2022-11-20T05:13:33;71.90;;;29.05;;
21270;SDS011;10795;50.796;3.860;2022-11-20T05:16:06;71.88;;;29.23;;
21270;SDS011;10795;50.796;3.860;2022-11-20T05:18:33;69.93;;;28.95;;
21270;SDS011;10795;50.796;3.860;2022-11-20T05:20:59;73.93;;;29.00;;
21270;SDS011;10795;50.796;3.860;2022-11-20T05:23:25;67.40;;;28.38;;
21270;SDS011;10795;50.796;3.860;2022-11-20T05:25:52;66.00;;;27.85;;
21270;SDS011;10795;50.796;3.860;2022-11-20T05:28:19;67.68;;;28.95;;
21270;SDS011;10795;50.796;3.860;2022-11-20T05:30:45;71.88;;;29.75;;
21270;SDS011;10795;50.796;3.860;2022-11-20T05:33:11;73.68;;;28.85;;
21270;SDS011;10795;50.796;3.860;2022-11-20T05:35:37;66.70;;;28.73;;
21270;SDS011;10795;50.796;3.860;2022-11-20T05:38:02;56.72;;;25.63;;
21270;SDS011;10795;50.796;3.860;2022-11-20T05:40:28;65.25;;;27.60;;
21270;SDS011;10795;50.796;3.860;2022-11-20T05:42:54;67.70;;;27.95;;
21270;SDS011;10795;50.796;3.860;2022-11-20T05:45:20;64.68;;;27.35;;
21270;SDS011;10795;50.796;3.860;2022-11-20T05:47:45;65.30;;;27.88;;
21270;SDS011;10795;50.796;3.860;2022-11-20T05:50:11;47.53;;;21.42;;
21270;SDS011;10795;50.796;3.860;2022-11-20T05:52:37;59.05;;;26.95;;
21270;SDS011;10795;50.796;3.860;2022-11-20T05:55:03;61.97;;;27.52;;
21270;SDS011;10795;50.796;3.860;2022-11-20T05:57:29;64.25;;;27.60;;
21270;SDS011;10795;50.796;3.860;2022-11-20T05:59:55;61.85;;;27.02;;
21270;SDS011;10795;50.796;3.860;2022-11-20T06:02:21;60.65;;;26.35;;
21270;SDS011;10795;50.796;3.860;2022-11-20T06:04:47;65.35;;;28.35;;
21270;SDS011;10795;50.796;3.860;2022-11-20T06:07:13;59.40;;;27.15;;
21270;SDS011;10795;50.796;3.860;2022-11-20T06:09:39;60.88;;;26.27;;
21270;SDS011;10795;50.796;3.860;2022-11-20T06:12:05;63.42;;;26.30;;
21270;SDS011;10795;50.796;3.860;2022-11-20T06:14:31;66.30;;;27.58;;
21270;SDS011;10795;50.796;3.860;2022-11-20T06:16:56;56.63;;;23.70;;
21270;SDS011;10795;50.796;3.860;2022-11-20T06:19:22;64.88;;;26.73;;
21270;SDS011;10795;50.796;3.860;2022-11-20T06:21:48;60.85;;;26.75;;
21270;SDS011;10795;50.796;3.860;2022-11-20T06:24:15;66.80;;;26.55;;
21270;SDS011;10795;50.796;3.860;2022-11-20T06:26:41;65.53;;;28.60;;
21270;SDS011;10795;50.796;3.860;2022-11-20T06:29:07;66.72;;;26.73;;
21270;SDS011;10795;50.796;3.860;2022-11-20T06:31:33;66.30;;;26.92;;
21270;SDS011;10795;50.796;3.860;2022-11-20T06:34:00;63.70;;;26.40;;
21270;SDS011;10795;50.796;3.860;2022-11-20T06:36:26;62.97;;;27.58;;
21270;SDS011;10795;50.796;3.860;2022-11-20T06:38:52;65.55;;;28.35;;
21270;SDS011;10795;50.796;3.860;2022-11-20T06:41:19;68.78;;;28.55;;
21270;SDS011;10795;50.796;3.860;2022-11-20T06:43:46;71.72;;;27.33;;
21270;SDS011;10795;50.796;3.860;2022-11-20T06:46:13;68.10;;;29.02;;
21270;SDS011;10795;50.796;3.860;2022-11-20T06:51:08;72.57;;;26.73;;
21270;SDS011;10795;50.796;3.860;2022-11-20T06:53:34;76.68;;;28.60;;
21270;SDS011;10795;50.796;3.860;2022-11-20T06:56:00;73.32;;;27.67;;
21270;SDS011;10795;50.796;3.860;2022-11-20T06:58:27;68.03;;;25.98;;
21270;SDS011;10795;50.796;3.860;2022-11-20T07:00:54;68.93;;;27.67;;
21270;SDS011;10795;50.796;3.860;2022-11-20T07:05:49;67.82;;;25.42;;
21270;SDS011;10795;50.796;3.860;2022-11-20T07:08:15;65.13;;;26.08;;
21270;SDS011;10795;50.796;3.860;2022-11-20T07:10:40;62.67;;;25.38;;
21270;SDS011;10795;50.796;3.860;2022-11-20T07:13:06;69.20;;;25.65;;
21270;SDS011;10795;50.796;3.860;2022-11-20T07:15:32;77.03;;;26.27;;
21270;SDS011;10795;50.796;3.860;2022-11-20T07:17:58;65.53;;;25.70;;
21270;SDS011;10795;50.796;3.860;2022-11-20T07:20:24;62.70;;;25.88;;
21270;SDS011;10795;50.796;3.860;2022-11-20T07:22:54;68.32;;;25.77;;
21270;SDS011;10795;50.796;3.860;2022-11-20T07:25:23;69.25;;;25.50;;
21270;SDS011;10795;50.796;3.860;2022-11-20T07:27:49;61.05;;;24.67;;
21270;SDS011;10795;50.796;3.860;2022-11-20T07:30:15;63.70;;;25.42;;
21270;SDS011;10795;50.796;3.860;2022-11-20T07:32:41;67.50;;;25.02;;
21270;SDS011;10795;50.796;3.860;2022-11-20T07:35:07;61.65;;;24.15;;
21270;SDS011;10795;50.796;3.860;2022-11-20T07:37:34;65.53;;;25.20;;
21270;SDS011;10795;50.796;3.860;2022-11-20T07:39:59;73.88;;;25.45;;
21270;SDS011;10795;50.796;3.860;2022-11-20T07:42:25;62.22;;;22.98;;
21270;SDS011;10795;50.796;3.860;2022-11-20T07:44:51;64.57;;;24.05;;
21270;SDS011;10795;50.796;3.860;2022-11-20T07:47:17;69.47;;;24.42;;
21270;SDS011;10795;50.796;3.860;2022-11-20T07:49:42;72.20;;;25.40;;
21270;SDS011;10795;50.796;3.860;2022-11-20T07:52:08;82.78;;;25.50;;
21270;SDS011;10795;50.796;3.860;2022-11-20T07:54:34;85.40;;;25.65;;
21270;SDS011;10795;50.796;3.860;2022-11-20T07:56:59;92.00;;;25.75;;
21270;SDS011;10795;50.796;3.860;2022-11-20T07:59:25;83.53;;;24.58;;
21270;SDS011;10795;50.796;3.860;2022-11-20T08:01:51;96.30;;;25.65;;
21270;SDS011;10795;50.796;3.860;2022-11-20T08:04:16;112.47;;;26.42;;
21270;SDS011;10795;50.796;3.860;2022-11-20T08:06:42;88.15;;;24.17;;
21270;SDS011;10795;50.796;3.860;2022-11-20T08:09:08;90.75;;;24.52;;
21270;SDS011;10795;50.796;3.860;2022-11-20T08:11:34;106.43;;;25.00;;
21270;SDS011;10795;50.796;3.860;2022-11-20T08:14:18;102.78;;;25.70;;
21270;SDS011;10795;50.796;3.860;2022-11-20T08:16:45;75.25;;;24.67;;
21270;SDS011;10795;50.796;3.860;2022-11-20T08:19:12;73.28;;;25.25;;
21270;SDS011;10795;50.796;3.860;2022-11-20T08:21:39;101.38;;;26.55;;
21270;SDS011;10795;50.796;3.860;2022-11-20T08:24:06;102.90;;;24.73;;
21270;SDS011;10795;50.796;3.860;2022-11-20T08:26:32;65.05;;;24.23;;
21270;SDS011;10795;50.796;3.860;2022-11-20T08:28:58;50.47;;;21.50;;
21270;SDS011;10795;50.796;3.860;2022-11-20T08:31:25;67.38;;;24.05;;
21270;SDS011;10795;50.796;3.860;2022-11-20T08:33:52;68.80;;;24.13;;
21270;SDS011;10795;50.796;3.860;2022-11-20T08:36:18;75.20;;;23.08;;
21270;SDS011;10795;50.796;3.860;2022-11-20T08:38:51;64.00;;;22.88;;
21270;SDS011;10795;50.796;3.860;2022-11-20T08:41:18;68.45;;;24.98;;
21270;SDS011;10795;50.796;3.860;2022-11-20T08:43:51;61.38;;;23.40;;
21270;SDS011;10795;50.796;3.860;2022-11-20T08:46:21;58.72;;;22.48;;
21270;SDS011;10795;50.796;3.860;2022-11-20T08:48:52;57.92;;;22.58;;
21270;SDS011;10795;50.796;3.860;2022-11-20T08:51:18;60.17;;;23.58;;
21270;SDS011;10795;50.796;3.860;2022-11-20T08:53:44;47.97;;;20.17;;
21270;SDS011;10795;50.796;3.860;2022-11-20T08:56:11;49.35;;;19.90;;
21270;SDS011;10795;50.796;3.860;2022-11-20T08:58:37;49.10;;;20.65;;
21270;SDS011;10795;50.796;3.860;2022-11-20T09:01:04;49.58;;;21.58;;
21270;SDS011;10795;50.796;3.860;2022-11-20T09:03:30;51.63;;;21.67;;
21270;SDS011;10795;50.796;3.860;2022-11-20T09:05:57;52.10;;;21.48;;
21270;SDS011;10795;50.796;3.860;2022-11-20T09:08:24;38.17;;;17.65;;
21270;SDS011;10795;50.796;3.860;2022-11-20T09:10:53;46.85;;;19.45;;
21270;SDS011;10795;50.796;3.860;2022-11-20T09:15:46;38.83;;;17.17;;
21270;SDS011;10795;50.796;3.860;2022-11-20T09:18:12;38.65;;;18.25;;
21270;SDS011;10795;50.796;3.860;2022-11-20T09:20:38;41.40;;;17.90;;
21270;SDS011;10795;50.796;3.860;2022-11-20T09:23:04;41.33;;;17.80;;
21270;SDS011;10795;50.796;3.860;2022-11-20T09:25:29;37.30;;;17.25;;
21270;SDS011;10795;50.796;3.860;2022-11-20T09:27:56;33.03;;;16.00;;
21270;SDS011;10795;50.796;3.860;2022-11-20T09:30:22;32.10;;;15.88;;
21270;SDS011;10795;50.796;3.860;2022-11-20T09:32:48;30.90;;;15.00;;
21270;SDS011;10795;50.796;3.860;2022-11-20T09:35:14;32.30;;;14.75;;
21270;SDS011;10795;50.796;3.860;2022-11-20T09:37:39;28.15;;;13.65;;
21270;SDS011;10795;50.796;3.860;2022-11-20T09:40:06;24.38;;;11.95;;
21270;SDS011;10795;50.796;3.860;2022-11-20T09:42:52;22.80;;;12.07;;
21270;SDS011;10795;50.796;3.860;2022-11-20T09:48:16;26.08;;;12.20;;
21270;SDS011;10795;50.796;3.860;2022-11-20T09:50:56;22.08;;;10.93;;
21270;SDS011;10795;50.796;3.860;2022-11-20T09:55:51;20.15;;;10.63;;
21270;SDS011;10795;50.796;3.860;2022-11-20T10:01:10;17.48;;;7.85;;
21270;SDS011;10795;50.796;3.860;2022-11-20T10:04:01;15.38;;;6.82;;
21270;SDS011;10795;50.796;3.860;2022-11-20T10:06:53;12.85;;;6.38;;
21270;SDS011;10795;50.796;3.860;2022-11-20T10:09:32;10.63;;;6.18;;
